createdAt,value
2022-08-18T00:01:14.756Z,24.00
2022-08-18T00:03:56.329Z,26.48
2022-08-18T00:06:29.791Z,25.98
2022-08-18T00:09:01.677Z,25.20
2022-08-18T00:11:40.484Z,26.60
2022-08-18T00:14:11.528Z,26.10
2022-08-18T00:16:42.611Z,27.17
2022-08-18T00:19:11.114Z,25.92
2022-08-18T00:21:39.431Z,25.10
2022-08-18T00:24:09.032Z,25.25
2022-08-18T00:26:37.266Z,25.27
2022-08-18T00:29:05.456Z,25.80
2022-08-18T00:31:33.903Z,24.90
2022-08-18T00:34:01.955Z,24.95
2022-08-18T00:36:31.732Z,25.52
2022-08-18T00:38:59.825Z,23.67
2022-08-18T00:41:29.510Z,24.63
2022-08-18T00:43:59.106Z,25.13
2022-08-18T00:46:30.222Z,23.73
2022-08-18T00:48:59.345Z,23.80
2022-08-18T00:51:31.203Z,23.90
2022-08-18T00:54:04.288Z,25.35
2022-08-18T00:56:39.761Z,23.75
2022-08-18T00:59:12.546Z,22.92
2022-08-18T01:01:42.648Z,24.23
2022-08-18T01:04:15.587Z,24.30
2022-08-18T01:06:48.716Z,24.17
2022-08-18T01:09:18.589Z,22.92
2022-08-18T01:11:48.210Z,23.40
2022-08-18T01:14:18.276Z,23.10
2022-08-18T01:17:04.925Z,23.25
2022-08-18T01:19:50.141Z,23.10
2022-08-18T01:22:25.017Z,23.70
2022-08-18T01:25:15.912Z,23.13
2022-08-18T01:27:44.742Z,23.65
2022-08-18T01:30:18.324Z,23.77
2022-08-18T01:32:47.032Z,22.08
2022-08-18T01:35:18.233Z,22.05
2022-08-18T01:37:46.393Z,22.38
2022-08-18T01:41:11.166Z,21.13
2022-08-18T01:43:06.038Z,21.15
2022-08-18T01:45:34.637Z,21.08
2022-08-18T01:48:05.136Z,20.90
2022-08-18T01:50:35.291Z,21.30
2022-08-18T01:53:05.540Z,21.55
2022-08-18T01:55:35.552Z,21.48
2022-08-18T01:58:03.619Z,22.02
2022-08-18T02:00:32.405Z,22.75
2022-08-18T02:03:02.318Z,22.20
2022-08-18T02:05:35.862Z,23.67
2022-08-18T02:08:04.914Z,22.63
2022-08-18T02:10:34.547Z,23.05
2022-08-18T02:13:03.346Z,23.77
2022-08-18T02:15:31.453Z,23.38
2022-08-18T02:17:59.589Z,23.42
2022-08-18T02:20:27.807Z,24.15
2022-08-18T02:22:55.787Z,24.90
2022-08-18T02:25:24.041Z,25.58
2022-08-18T02:27:53.802Z,24.50
2022-08-18T02:30:22.214Z,24.05
2022-08-18T02:32:50.327Z,22.75
2022-08-18T02:35:18.660Z,24.70
2022-08-18T02:37:48.599Z,24.25
2022-08-18T02:40:20.558Z,23.08
2022-08-18T02:42:49.763Z,24.27
2022-08-18T02:45:19.572Z,22.73
2022-08-18T02:47:53.296Z,23.30
2022-08-18T02:50:22.069Z,24.83
2022-08-18T02:52:50.562Z,24.95
2022-08-18T02:55:18.703Z,25.00
2022-08-18T02:57:48.940Z,25.95
2022-08-18T03:00:20.181Z,24.83
2022-08-18T03:02:53.543Z,23.95
2022-08-18T03:05:21.882Z,25.63
2022-08-18T03:07:51.185Z,25.40
2022-08-18T03:10:31.500Z,26.50
2022-08-18T03:13:04.239Z,24.48
2022-08-18T03:15:34.098Z,25.67
2022-08-18T03:18:02.450Z,26.70
2022-08-18T03:20:31.618Z,25.48
2022-08-18T03:23:04.748Z,26.40
2022-08-18T03:25:38.757Z,26.00
2022-08-18T03:28:07.086Z,26.67
2022-08-18T03:30:36.812Z,25.60
2022-08-18T03:33:05.213Z,25.92
2022-08-18T03:35:35.585Z,24.42
2022-08-18T03:38:04.109Z,24.60
2022-08-18T03:40:32.352Z,25.30
2022-08-18T03:43:49.877Z,26.35
2022-08-18T03:46:02.161Z,25.33
2022-08-18T03:48:30.304Z,25.25
2022-08-18T03:51:05.468Z,26.35
2022-08-18T03:53:34.977Z,26.45
2022-08-18T03:56:03.489Z,27.25
2022-08-18T03:58:31.617Z,27.35
2022-08-18T04:01:03.695Z,28.20
2022-08-18T04:03:33.817Z,27.08
2022-08-18T04:06:01.923Z,25.67
2022-08-18T04:08:30.081Z,25.98
2022-08-18T04:10:58.042Z,26.25
2022-08-18T04:13:26.076Z,24.60
2022-08-18T04:15:54.152Z,25.48
2022-08-18T04:18:23.720Z,25.13
2022-08-18T04:20:58.900Z,25.65
2022-08-18T04:23:27.843Z,25.38
2022-08-18T04:25:58.087Z,25.58
2022-08-18T04:28:26.286Z,27.25
2022-08-18T04:30:57.011Z,28.05
2022-08-18T04:33:28.088Z,28.42
2022-08-18T04:35:58.384Z,29.30
2022-08-18T04:38:26.425Z,29.63
2022-08-18T04:40:54.518Z,29.15
2022-08-18T04:43:22.701Z,27.08
2022-08-18T04:45:51.535Z,28.92
2022-08-18T04:48:19.597Z,26.48
2022-08-18T04:50:52.234Z,28.05
2022-08-18T04:53:37.506Z,24.55
2022-08-18T04:56:06.155Z,25.73
2022-08-18T04:58:35.619Z,21.95
2022-08-18T05:01:03.693Z,22.70
2022-08-18T05:03:31.842Z,24.55
2022-08-18T05:06:04.864Z,24.00
2022-08-18T05:08:32.973Z,25.70
2022-08-18T05:11:04.077Z,24.33
2022-08-18T05:13:32.698Z,23.23
2022-08-18T05:16:18.011Z,25.30
2022-08-18T05:18:46.489Z,23.98
2022-08-18T05:21:16.251Z,23.23
2022-08-18T05:23:45.024Z,23.45
2022-08-18T05:26:14.709Z,24.70
2022-08-18T05:28:42.995Z,24.30
2022-08-18T05:31:13.951Z,23.90
2022-08-18T05:33:42.692Z,24.30
2022-08-18T05:36:28.173Z,25.10
2022-08-18T05:39:03.973Z,25.13
2022-08-18T05:41:35.857Z,24.40
2022-08-18T05:44:05.220Z,22.38
2022-08-18T05:46:41.417Z,23.08
2022-08-18T05:49:09.797Z,21.88
2022-08-18T05:51:43.203Z,23.52
2022-08-18T05:54:29.462Z,22.83
2022-08-18T05:57:02.505Z,21.02
2022-08-18T05:59:34.229Z,22.27
2022-08-18T06:02:13.113Z,22.15
2022-08-18T06:04:48.503Z,21.08
2022-08-18T06:07:25.152Z,20.13
2022-08-18T06:09:55.276Z,21.75
2022-08-18T06:12:30.411Z,23.27
2022-08-18T06:15:06.284Z,20.40
2022-08-18T06:17:55.906Z,22.30
2022-08-18T06:20:31.039Z,23.98
2022-08-18T06:23:18.619Z,24.40
2022-08-18T06:25:57.777Z,24.65
2022-08-18T06:28:31.049Z,23.55
2022-08-18T06:31:05.372Z,23.90
2022-08-18T06:33:47.899Z,23.15
2022-08-18T06:36:33.861Z,21.67
2022-08-18T06:39:09.468Z,22.55
2022-08-18T06:41:42.464Z,20.45
2022-08-18T06:44:13.819Z,23.33
2022-08-18T06:46:46.901Z,24.88
2022-08-18T06:49:22.826Z,23.15
2022-08-18T06:51:50.906Z,20.83
2022-08-18T06:54:31.109Z,20.35
2022-08-18T06:57:00.778Z,18.58
2022-08-18T06:59:31.297Z,17.88
2022-08-18T07:02:02.311Z,17.80
2022-08-18T07:05:05.547Z,16.05
2022-08-18T07:07:50.831Z,14.10
2022-08-18T07:10:39.256Z,11.77
2022-08-18T07:13:15.695Z,11.55
2022-08-18T07:15:45.809Z,12.32
2022-08-18T07:18:17.382Z,12.45
2022-08-18T07:20:48.247Z,11.65
2022-08-18T07:23:33.964Z,11.70
2022-08-18T07:26:09.657Z,9.82
2022-08-18T07:28:41.722Z,10.88
2022-08-18T07:31:18.161Z,10.95
2022-08-18T07:33:56.167Z,10.00
2022-08-18T07:36:29.844Z,9.00
2022-08-18T07:39:04.257Z,9.95
2022-08-18T07:41:41.225Z,10.95
2022-08-18T07:44:20.374Z,10.55
2022-08-18T07:46:59.842Z,10.32
2022-08-18T07:50:15.807Z,10.63
2022-08-18T07:52:47.425Z,11.23
2022-08-18T07:55:32.381Z,11.48
2022-08-18T07:58:20.254Z,10.68
2022-08-18T08:00:59.287Z,8.80
2022-08-18T08:03:38.522Z,8.77
2022-08-18T08:06:11.850Z,9.68
2022-08-18T08:08:49.693Z,10.20
2022-08-18T08:11:30.027Z,10.95
2022-08-18T08:14:26.143Z,11.68
2022-08-18T08:17:05.972Z,11.82
2022-08-18T08:20:02.809Z,11.93
2022-08-18T08:22:39.757Z,12.70
2022-08-18T08:25:42.788Z,13.07
2022-08-18T08:28:13.411Z,13.20
2022-08-18T08:30:52.540Z,13.05
2022-08-18T08:33:34.011Z,10.88
2022-08-18T08:36:10.012Z,11.43
2022-08-18T08:38:50.818Z,10.90
2022-08-18T08:41:31.708Z,11.15
2022-08-18T08:44:17.238Z,10.60
2022-08-18T08:46:55.570Z,11.00
2022-08-18T08:49:31.929Z,12.23
2022-08-18T08:52:06.761Z,11.23
2022-08-18T08:54:44.683Z,12.32
2022-08-18T08:57:17.628Z,11.82
2022-08-18T08:59:48.650Z,10.75
2022-08-18T09:02:48.637Z,11.05
2022-08-18T09:05:57.036Z,11.68
2022-08-18T09:08:53.525Z,11.77
2022-08-18T09:11:47.028Z,11.07
2022-08-18T09:15:01.149Z,11.90
2022-08-18T09:17:53.848Z,12.40
2022-08-18T09:20:51.634Z,12.60
2022-08-18T09:23:23.892Z,10.00
2022-08-18T09:25:54.464Z,12.30
2022-08-18T09:28:40.677Z,13.27
2022-08-18T09:31:20.010Z,14.65
2022-08-18T09:34:10.632Z,14.27
2022-08-18T09:37:00.253Z,13.73
2022-08-18T09:39:54.521Z,14.73
2022-08-18T09:45:58.334Z,14.32
2022-08-18T09:50:37.216Z,13.20
2022-08-18T09:50:37.387Z,14.75
2022-08-18T09:51:40.007Z,14.73
2022-08-18T09:54:26.075Z,14.10
2022-08-18T09:57:24.414Z,12.82
2022-08-18T10:00:24.277Z,15.10
2022-08-18T10:03:32.257Z,13.82
2022-08-18T10:06:19.218Z,13.93
2022-08-18T10:09:38.025Z,14.43
2022-08-18T10:12:29.623Z,13.50
2022-08-18T10:15:33.965Z,14.50
2022-08-18T10:18:22.041Z,12.52
2022-08-18T10:20:58.916Z,13.40
2022-08-18T10:24:14.658Z,10.90
2022-08-18T10:31:10.089Z,12.20
2022-08-18T10:34:19.491Z,13.55
2022-08-18T10:36:51.746Z,14.38
2022-08-18T10:39:23.380Z,13.90
2022-08-18T10:42:07.950Z,12.68
2022-08-18T10:44:47.559Z,11.75
2022-08-18T10:47:33.168Z,13.10
2022-08-18T10:50:11.223Z,13.80
2022-08-18T10:53:24.205Z,12.38
2022-08-18T10:56:06.186Z,10.90
2022-08-18T10:58:59.862Z,10.82
2022-08-18T11:01:46.475Z,8.13
2022-08-18T11:04:34.703Z,5.22
2022-08-18T11:07:23.107Z,4.10
2022-08-18T11:13:08.778Z,3.22
2022-08-18T11:15:48.941Z,2.92
2022-08-18T11:18:42.676Z,2.72
2022-08-18T11:21:41.737Z,2.90
2022-08-18T11:24:18.718Z,2.78
2022-08-18T11:29:39.908Z,2.85
2022-08-18T11:32:19.734Z,2.42
2022-08-18T11:34:54.156Z,2.70
2022-08-18T11:37:27.343Z,2.65
2022-08-18T11:40:06.452Z,2.47
2022-08-18T11:42:59.433Z,2.47
2022-08-18T11:45:32.828Z,2.10
2022-08-18T11:48:12.413Z,2.20
2022-08-18T11:50:54.621Z,2.15
2022-08-18T11:53:26.633Z,2.20
2022-08-18T11:56:21.277Z,2.22
2022-08-18T11:59:09.121Z,2.40
2022-08-18T12:02:03.834Z,2.50
2022-08-18T12:04:41.916Z,2.30
2022-08-18T12:10:25.732Z,2.45
2022-08-18T12:13:03.160Z,2.33
2022-08-18T12:15:43.920Z,2.20
2022-08-18T12:18:28.822Z,2.55
2022-08-18T12:20:59.369Z,2.40
2022-08-18T12:23:52.111Z,2.47
2022-08-18T12:28:34.231Z,2.70
2022-08-18T12:29:55.618Z,2.95
2022-08-18T12:32:56.091Z,2.80
2022-08-18T12:35:54.800Z,2.70
2022-08-18T12:38:29.996Z,2.80
2022-08-18T12:41:36.130Z,3.55
2022-08-18T12:44:10.055Z,3.20
2022-08-18T12:47:06.438Z,2.40
2022-08-18T12:49:39.625Z,2.70
2022-08-18T12:52:17.272Z,3.00
2022-08-18T12:54:59.646Z,2.80
2022-08-18T12:57:52.079Z,2.50
2022-08-18T13:00:28.931Z,2.70
2022-08-18T13:03:03.729Z,2.67
2022-08-18T13:05:38.413Z,3.22
2022-08-18T13:08:27.702Z,2.83
2022-08-18T13:11:14.810Z,2.60
2022-08-18T13:14:00.995Z,3.00
2022-08-18T13:16:53.821Z,3.10
2022-08-18T13:19:25.777Z,3.15
2022-08-18T13:22:00.737Z,3.17
2022-08-18T13:24:31.457Z,2.95
2022-08-18T13:27:04.249Z,3.03
2022-08-18T13:29:48.498Z,3.15
2022-08-18T13:32:19.828Z,3.70
2022-08-18T13:35:08.991Z,4.30
2022-08-18T13:37:46.406Z,3.90
2022-08-18T13:40:17.483Z,3.75
2022-08-18T13:42:50.643Z,4.15
2022-08-18T13:45:25.678Z,4.35
2022-08-18T13:47:54.469Z,4.10
2022-08-18T13:50:29.679Z,4.07
2022-08-18T13:53:01.045Z,4.10
2022-08-18T13:55:30.175Z,4.55
2022-08-18T13:58:02.082Z,4.40
2022-08-18T14:00:35.137Z,3.97
2022-08-18T14:03:03.708Z,3.30
2022-08-18T14:05:36.629Z,3.15
2022-08-18T14:08:20.110Z,3.65
2022-08-18T14:10:51.628Z,3.35
2022-08-18T14:13:25.076Z,3.35
2022-08-18T14:15:59.316Z,3.28
2022-08-18T14:18:31.125Z,3.30
2022-08-18T14:21:23.058Z,3.05
2022-08-18T14:24:14.180Z,3.40
2022-08-18T14:26:51.728Z,3.60
2022-08-18T14:29:46.269Z,3.80
2022-08-18T14:32:13.225Z,3.60
2022-08-18T14:34:50.676Z,3.45
2022-08-18T14:37:28.726Z,3.00
2022-08-18T14:40:01.282Z,3.35
2022-08-18T14:42:41.867Z,3.10
2022-08-18T14:45:31.285Z,3.00
2022-08-18T14:48:10.967Z,3.40
2022-08-18T14:50:49.081Z,3.28
2022-08-18T14:53:20.251Z,3.42
2022-08-18T14:55:52.034Z,2.95
2022-08-18T14:58:20.922Z,3.97
2022-08-18T15:00:53.800Z,3.00
2022-08-18T15:03:28.305Z,3.80
2022-08-18T15:06:17.069Z,3.38
2022-08-18T15:08:51.360Z,3.35
2022-08-18T15:11:23.329Z,3.60
2022-08-18T15:13:55.173Z,3.35
2022-08-18T15:16:31.650Z,3.00
2022-08-18T15:19:03.280Z,3.53
2022-08-18T15:22:17.218Z,3.25
2022-08-18T15:25:06.433Z,3.40
2022-08-18T15:27:43.242Z,3.17
2022-08-18T15:30:19.369Z,3.22
2022-08-18T15:32:53.221Z,3.05
2022-08-18T15:35:41.581Z,3.40
2022-08-18T15:38:35.586Z,3.15
2022-08-18T15:41:14.412Z,3.10
2022-08-18T15:43:48.092Z,4.03
2022-08-18T15:46:17.597Z,2.90
2022-08-18T15:48:45.870Z,3.42
2022-08-18T15:51:18.380Z,3.85
2022-08-18T15:53:51.744Z,3.33
2022-08-18T15:56:26.170Z,2.90
2022-08-18T15:58:54.382Z,3.38
2022-08-18T16:01:32.451Z,3.20
2022-08-18T16:04:11.426Z,3.20
2022-08-18T16:06:52.535Z,4.10
2022-08-18T16:10:13.870Z,3.20
2022-08-18T16:12:46.450Z,3.67
2022-08-18T16:15:30.899Z,3.47
2022-08-18T16:17:59.781Z,3.50
2022-08-18T16:20:29.447Z,3.60
2022-08-18T16:23:05.494Z,3.33
2022-08-18T16:25:41.438Z,3.70
2022-08-18T16:28:20.060Z,3.25
2022-08-18T16:30:48.569Z,3.45
2022-08-18T16:33:16.860Z,3.60
2022-08-18T16:35:47.619Z,3.20
2022-08-18T16:38:17.317Z,2.97
2022-08-18T16:40:45.492Z,3.58
2022-08-18T16:43:14.902Z,2.85
2022-08-18T16:45:43.518Z,3.50
2022-08-18T16:48:16.724Z,3.05
2022-08-18T16:50:46.270Z,3.38
2022-08-18T16:53:14.267Z,3.00
2022-08-18T16:55:45.850Z,3.17
2022-08-18T16:58:31.803Z,3.05
2022-08-18T17:01:19.138Z,3.05
2022-08-18T17:04:05.040Z,3.10
2022-08-18T17:06:47.334Z,2.63
2022-08-18T17:09:16.653Z,3.00
2022-08-18T17:11:48.127Z,3.00
2022-08-18T17:14:21.000Z,3.25
2022-08-18T17:16:54.462Z,3.50
2022-08-18T17:19:24.130Z,2.90
2022-08-18T17:21:52.294Z,2.65
2022-08-18T17:24:31.389Z,3.10
2022-08-18T17:27:15.653Z,2.38
2022-08-18T17:30:00.538Z,2.90
2022-08-18T17:32:32.570Z,2.97
2022-08-18T17:35:07.741Z,2.47
2022-08-18T17:37:37.493Z,2.67
2022-08-18T17:40:12.295Z,2.90
2022-08-18T17:42:41.755Z,3.00
2022-08-18T17:45:21.698Z,2.90
2022-08-18T17:47:57.691Z,3.10
2022-08-18T17:50:46.771Z,2.95
2022-08-18T17:53:15.721Z,3.08
2022-08-18T17:55:48.476Z,2.88
2022-08-18T17:58:22.109Z,2.72
2022-08-18T18:00:50.111Z,2.88
2022-08-18T18:03:18.648Z,3.05
2022-08-18T18:05:52.670Z,2.75
2022-08-18T18:08:20.675Z,3.10
2022-08-18T18:11:07.643Z,2.78
2022-08-18T18:13:38.484Z,3.13
2022-08-18T18:16:24.538Z,2.70
2022-08-18T18:19:01.258Z,2.95
2022-08-18T18:22:00.356Z,2.75
2022-08-18T18:24:23.915Z,2.83
2022-08-18T18:26:53.287Z,3.13
2022-08-18T18:29:31.574Z,3.08
2022-08-18T18:32:05.772Z,3.15
2022-08-18T18:34:39.579Z,3.03
2022-08-18T18:37:26.172Z,3.53
2022-08-18T18:39:58.987Z,3.38
2022-08-18T18:42:30.247Z,3.30
2022-08-18T18:45:01.420Z,3.47
2022-08-18T18:47:47.303Z,3.08
2022-08-18T18:50:24.017Z,3.55
2022-08-18T18:53:04.134Z,3.35
2022-08-18T18:55:42.900Z,3.40
2022-08-18T18:58:21.475Z,3.28
2022-08-18T19:00:56.145Z,2.97
2022-08-18T19:03:29.391Z,3.20
2022-08-18T19:06:14.378Z,3.30
2022-08-18T19:08:54.157Z,3.15
2022-08-18T19:11:30.453Z,3.30
2022-08-18T19:14:07.573Z,3.35
2022-08-18T19:16:42.031Z,3.13
2022-08-18T19:19:37.488Z,3.45
2022-08-18T19:22:11.455Z,2.80
2022-08-18T19:24:48.244Z,3.35
2022-08-18T19:27:25.423Z,3.20
2022-08-18T19:29:58.118Z,3.20
2022-08-18T19:32:36.597Z,2.95
2022-08-18T19:35:12.234Z,3.47
2022-08-18T19:38:01.956Z,3.83
2022-08-18T19:40:40.356Z,3.00
2022-08-18T19:43:13.688Z,3.45
2022-08-18T19:45:50.263Z,3.58
2022-08-18T19:48:27.340Z,3.72
2022-08-18T19:50:58.835Z,4.35
2022-08-18T19:53:57.002Z,5.28
2022-08-18T19:56:53.352Z,7.03
2022-08-18T19:59:39.770Z,12.75
2022-08-18T20:02:26.380Z,13.07
2022-08-18T20:05:42.815Z,10.75
2022-08-18T20:09:07.781Z,12.40
2022-08-18T20:12:26.231Z,12.50
2022-08-18T20:15:32.762Z,10.35
2022-08-18T20:18:09.696Z,9.48
2022-08-18T20:20:40.258Z,7.28
2022-08-18T20:23:41.294Z,10.40
2022-08-18T20:26:51.844Z,10.13
2022-08-18T20:29:52.220Z,9.63
2022-08-18T20:33:03.475Z,8.07
2022-08-18T20:36:03.808Z,10.13
2022-08-18T20:38:38.760Z,16.42
2022-08-18T20:41:54.913Z,16.50
2022-08-18T20:45:10.405Z,15.98
2022-08-18T20:47:58.120Z,16.90
2022-08-18T20:51:05.140Z,22.92
2022-08-18T20:54:34.740Z,20.85
2022-08-18T20:57:22.883Z,19.88
2022-08-18T21:00:12.061Z,20.52
2022-08-18T21:05:45.509Z,15.63
2022-08-18T21:08:33.518Z,20.33
2022-08-18T21:11:08.124Z,19.77
2022-08-18T21:13:40.938Z,20.70
2022-08-18T21:16:38.666Z,24.13
2022-08-18T21:19:16.871Z,22.17
2022-08-18T21:22:00.984Z,20.38
2022-08-18T21:24:42.664Z,21.25
2022-08-18T21:27:27.862Z,20.05
2022-08-18T21:30:13.138Z,21.10
2022-08-18T21:32:42.238Z,21.35
2022-08-18T21:38:20.115Z,21.95
2022-08-18T21:40:53.754Z,22.02
2022-08-18T21:43:56.355Z,21.17
2022-08-18T21:46:30.802Z,21.30
2022-08-18T21:49:12.046Z,21.23
2022-08-18T21:51:48.778Z,18.70
2022-08-18T21:54:19.254Z,19.85
2022-08-18T21:56:50.897Z,21.73
2022-08-18T21:59:25.236Z,22.48
2022-08-18T22:02:02.339Z,20.63
2022-08-18T22:04:37.445Z,20.55
2022-08-18T22:07:34.134Z,19.30
2022-08-18T22:10:45.641Z,19.00
2022-08-18T22:13:39.181Z,17.27
2022-08-18T22:16:34.107Z,19.92
2022-08-18T22:19:14.677Z,20.67
2022-08-18T22:21:52.453Z,22.15
2022-08-18T22:24:25.796Z,22.55
2022-08-18T22:27:08.112Z,24.83
2022-08-18T22:30:04.178Z,25.13
2022-08-18T22:32:57.389Z,25.00
2022-08-18T22:35:40.661Z,23.77
2022-08-18T22:38:31.738Z,25.52
2022-08-18T22:41:06.788Z,24.17
2022-08-18T22:43:37.658Z,23.75
2022-08-18T22:46:09.935Z,23.90
2022-08-18T22:48:41.668Z,21.08
2022-08-18T22:51:10.469Z,23.20
2022-08-18T22:53:47.418Z,22.65
2022-08-18T22:56:21.873Z,22.40
2022-08-18T22:59:15.776Z,20.05
2022-08-18T23:01:51.684Z,20.98
2022-08-18T23:04:22.502Z,21.85
2022-08-18T23:06:56.414Z,24.42
2022-08-18T23:09:26.753Z,23.90
2022-08-18T23:11:59.639Z,27.70
2022-08-18T23:14:31.068Z,28.38
2022-08-18T23:17:03.644Z,28.27
2022-08-18T23:19:35.508Z,26.92
2022-08-18T23:22:10.502Z,26.90
2022-08-18T23:24:39.253Z,25.80
2022-08-18T23:27:09.451Z,26.33
2022-08-18T23:29:39.981Z,23.00
2022-08-18T23:32:16.604Z,25.10
2022-08-18T23:35:08.850Z,23.83
2022-08-18T23:37:39.726Z,25.75
2022-08-18T23:40:13.453Z,26.90
2022-08-18T23:42:41.729Z,27.40
2022-08-18T23:45:13.590Z,26.55
2022-08-18T23:47:44.813Z,27.80
2022-08-18T23:50:31.620Z,27.27
2022-08-18T23:53:04.808Z,24.10
2022-08-18T23:55:33.922Z,22.02
2022-08-18T23:58:07.044Z,21.88
